EA1YR-1
43.22.13N 005.51.85W
IN73BI aprs.fi
2km/h, 143°
zuletzt gehört:
2022-12-01T15:59:37Z

APRS Oviedo [IN73BI], 2 Stunde(n), EA1YR-1 [01:45:33, 0s].
EA1JBU 43.21.85N 005.51.13WIN73BI 0.653km 130°SE00:32:03ZEA1JBU(3EA1JBU-1)
33D00 43.21.63N 005.51.13WIN73BI 0.975km 148°SSE00:01:42Z33-D-00 Protección Civil REMER / Delegación del Gobierno en Asturias
ED1ZAU 43.23.04N 005.52.75WIN73BJ 2.452km 317°NW00:34:41ZRD625 438.5000/430.9000 CC1
LEHU 43.22.63N 005.49.57WIN73CJ 2.794km 69°ENE00:30:03ZHelipuerto del HUCA: LEAS 072330Z 08010KT 050V120 9999 OVC008 12/11 Q1008 NOSIG=
EA1L 43.20.37N 005.51.13WIN73BI 3.188km 171°S00:45:14ZWind 076°/000kn, Böen bis 001kn, Temp 13.89c, Regen 0.0mm, letzte 24h 0.0mm, seit 0h 0.0mm, Baro 1005.0h, Hum: 0%(3EA1L-13)
EA1HWX 43.19.29N 005.50.96WIN73BH 5.217km 172°S00:36:45ZDMO - UHF 439.7250/431.0000 CC11(3EA1HWX-2)
EA1ABW 43.24.77N 005.47.77WIN73CJ 7.092km 45°NE00:36:04ZMMDVM MMDVM HS Hat 439.8250/439.8250 CC1(3EA1ABW-2)
LEMR 43.25.83N 005.49.60WIN73CK 7.408km 20°NNE00:30:03ZAerodromo de la Morgal (123.500MHz): LEAS 072330Z 08010KT 050V120 9999 OVC008 12/11 Q1008 NOSIG=
LEGM 43.26.15N 005.49.84WIN73CK 7.891km 17°NNE00:30:03ZHelipuerto de La Morgal (123.500MHz): LEAS 072330Z 08010KT 050V120 9999 OVC008 12/11 Q1008 NOSIG=
EA1IPU 43.26.21N 005.46.62WIN73CK 10.112km 41°NE00:36:24ZMMDVM MMDVM HS Hat 439.8000/439.8000 CC1(3EA1IPU-1)
ED1ZAY 43.29.47N 005.56.54WIN73AL 15.301km 334°NNW00:34:47ZRD625 438.3000/430.7000 CC1
EA1IMW 43.14.36N 005.46.93WIN73CF 15.578km 157°SSE00:36:26ZGRUPO RADIO GALENA (GRG) 430.4500/430.4500 CC1(3EA1IMW-1)
ED1ZAS 43.27.52N 005.40.17WIN73DL 18.293km 56°NE00:34:41ZRD985 438.2250/430.6250 CC1
ED1ZAE 43.27.99N 005.40.54WIN73DL 18.374km 53°NE00:31:18Z400 M. PICO SAN MARTIN (GIJON) 13.3V,11.6C(3ED1ZAE-3)
EA1JBL 43.12.28N 005.47.42WIN73CE 18.953km 163°SSE00:35:21ZMMDVM DVMega 435.3000/435.3000 CC1
EB1DGC 43.12.60N 005.45.59WIN73CF 19.287km 156°SSE00:35:11ZMMDVM MMDVM HS Hat 433.4500/433.4500 CC1
EA1HWA 43.12.00N 005.47.40WIN73CE 19.480km 163°SSE00:35:31ZMMDVM MMDVM HS Hat 433.4500/433.4500 CC1
EA1AHA 43.32.72N 005.54.38WIN73BN 20.112km 349°N00:32:19ZWind 135°/006kn, Böen bis 009kn, Temp 13.33c, Regen 0.3mm, letzte 24h 0.3mm, seit 0h 0.3mm, Baro 1008.6h, Hum: 81%(3EA1AHA-13)
EA1FLQ 43.22.00N 005.36.35WIN73EI 20.408km 90°E00:35:21ZMMDVM DVMega 430.9750/430.9750 CC1
EA4ACU 43.29.56N 005.38.92WIN73EL 21.892km 51°NE00:37:08ZMMDVM MMDVM HS Hat 432.7000/432.7000 CC1(3EA4ACU-1)
EA1DZL 43.33.56N 005.55.78WIN73AN 22.037km 345°NNW00:37:36ZMMDVM MMDVM HS Hat 438.8000/438.8000 CC1(3EA1DZL-1)
EB1TK 43.32.22N 005.42.32WIN73DM 22.510km 33°NNE00:45:18ZWind 059°/020kn, Böen bis 025kn, Temp 12.78c, Regen 0.0mm, letzte 24h 0.0mm, seit 0h 0.0mm, Baro 1009.6h, Hum: 89%(3EB1TK-13)
EA1FFA 43.31.53N 005.40.64WIN73DM 22.830km 40°NE00:36:42ZMMDVM MMDVM HS Hat 438.8000/438.8000 CC1(3EA1FFA-1)
EA1DZR 43.31.48N 005.40.00WIN73DM 23.299km 42°NE00:36:24ZMMDVM DVMega 431.1000/431.1000 CC1(3EA1DZR-1)
MMDVM MMDVM HS Hat 432.2000/432.2000 CC2(2EA1DZR-2)
MMDVM DV ADER 434.3500/434.3500 CC1(2EA1DZR-4)
EA1RCG 43.09.45N 005.49.78WIN73CD 23.496km 174°S00:36:19ZGRUPO RADIO GALENA (GRG) 430.4500/430.4500 CC1(3EA1RCG-3)
LEEL 43.32.98N 005.41.71WIN73DN 24.114km 33°NNE00:30:04ZHelipuerto de El Musel: LEAS 072330Z 08010KT 050V120 9999 OVC008 12/11 Q1008 NOSIG=
EA1IEJ 43.32.33N 005.38.92WIN73EM 25.449km 42°NE00:36:30ZMMDVM DMO 222.3400/222.3400 CC1(3EA1IEJ-11)
EB1GEM 43.30.00N 005.36.07WIN73EM 25.449km 55°NE00:42:50ZWX3in1Plus2.0 U=13.3V,T=??.?C/??.?F(3EB1GEM-3)
EA1HJA 43.28.10N 005.30.45WIN73FL 30.462km 68°ENE00:33:04Z IN73FL WX3IN1+ 2.0 - V=13.9V,TX TEMP=43.5C
IN73FL WX3IN1+ 2.0 - V=13.3V,TX TEMP=23.7C(2EA1HJA-2)
ED1ZAD 43.07.90N 005.38.52WIN73ED 31.561km 146°SE00:33:14ZED1ZAD-3 APRS Digi/Igate(3ED1ZAD-3)
EA1JW 43.31.35N 005.28.83WIN73GM 35.016km 60°ENE00:36:16ZMMDVM MMDVM HS Hat 436.5000/436.5000 CC1(3EA1JW-3)
EA1JAY 43.29.33N 005.26.78WIN73GL 35.896km 68°ENE00:45:04Z434.525MHz Nodo TETRA DMO(3EA1JAY-4)
EA1JAY(2EA1JAY-2)
EA1FHR 43.28.72N 005.26.41WIN73GL 35.939km 70°ENE00:35:08ZMMDVM MMDVM HS Hat 439.1500/439.1500 CC1
EA1HWD 43.28.96N 005.26.30WIN73GL 36.244km 69°ENE00:35:23ZMMDVM MMDVM HS Hat 434.2500/434.2500 CC1
EC1KV 43.34.01N 006.16.01WIN63UN 39.679km 304°NW00:31:50ZALBUERNE(3EC1KV-1)
LETN 43.20.05N 006.22.69WIN63TI 42.193km 265°W00:30:03ZAerodromo de La Curiscada (Tineo): LEAS 072330Z 08010KT 050V120 9999 OVC008 12/11 Q1008 NOSIG=

aprs.pl 5.0.011w DL3EL © 2006-2021 [8274529]